x

Chesapeake Light, Va (chlv2) Weather Station

6:00pm - Sat 6th Feb 2016 All times are EST. -5 hours from GMT.

  • Wind
    2mph
  • Air Temp 40°f
  • Sea Pressure 1028.5mb
  • Chesapeake Light, Va
  • Chesapeake Light, Va

More Historic Weather Station data

Upgrade to MSW Pro to gain access to the past 30 days of data for over 8000 Wavebouys and Weather Stations around the globe.

Join Pro

Comparision Forecast

View Surf forecast
   
Sat 02/06 6:00pm 2
mph
1028.5mb 40f
5:00pm 6 7 mph 1028.2mb 40f
4:00pm 3
mph
1028.1mb 40f
3:00pm 8 10 mph 1028.1mb 40f
2:00pm 10 11 mph 1028.7mb 40f
1:00pm 7 8 mph 1029.9mb 40f
12:00pm 7 9 mph 1031.2mb 40f
11:00am 5 6 mph 1032.2mb 40f
10:00am 5
mph
1032.2mb 40f
9:00am 5 6 mph 1032.3mb 40f
8:00am 7 8 mph 1032mb 40f
7:00am 9 10 mph 1031.7mb 39f
6:00am 10 11 mph 1031mb 39f
5:00am 14 15 mph 1030.6mb 39f
4:00am 15 17 mph 1030.3mb 39f
3:00am 15 17 mph 1030mb 39f
2:00am 14 16 mph 1030.1mb 39f
1:00am 15 17 mph 1029.7mb 39f
12:00am 16 17 mph 1030mb 40f
Fri 02/05 11:00pm 21 22 mph 1029.3mb 40f
10:00pm 21 22 mph 1029.3mb 40f
9:00pm 20 22 mph 1029.1mb 41f
8:00pm 23 25 mph 1028.1mb 41f
7:00pm 22 24 mph 1028.1mb 42f
6:00pm 22 23 mph 1027.5mb 41f
5:00pm 25 26 mph 1026.1mb 41f
4:00pm 25 26 mph 1025.1mb 41f
3:00pm 31 34 mph 1024.9mb 41f
2:00pm 30 34 mph 1024.8mb 40f
1:00pm 36 38 mph 1024.6mb 40f
12:00pm 31 33 mph 1024mb 38f
11:00am 34 37 mph 1023mb 39f
10:00am 37 41 mph 1021.8mb 39f
9:00am 32 36 mph 1020.6mb 37f
8:00am 39 44 mph 1019.1mb 36f
7:00am 43 47 mph 1016mb 38f
6:00am 41 47 mph 1014.8mb 39f
5:00am 36 39 mph 1014.3mb 41f
4:00am 36 39 mph 1014.3mb 41f
3:00am 37 40 mph 1013.7mb 41f
2:00am 33 36 mph 1014mb 42f
1:00am 29 30 mph 1014.6mb 42f
12:00am 25 28 mph 1015.9mb 43f
Thu 02/04 11:00pm 21 23 mph 1017.2mb 43f
10:00pm 23 24 mph 1017.2mb 44f
9:00pm 24 25 mph 1017.4mb 44f
8:00pm 26 29 mph 1017.3mb 45f
7:00pm 24 28 mph 1017mb 45f
6:00pm 17 18 mph 1017.6mb 45f
5:00pm 25 29 mph 1016.1mb 46f
4:00pm 21 23 mph 1016.4mb 46f
3:00pm 24 26 mph 1016.3mb 46f
2:00pm 28 30 mph 1015.4mb 47f
1:00pm 24 26 mph 1015.9mb 49f
12:00pm 23 24 mph 1015.8mb 50f
11:00am 10 11 mph 1016.1mb 58f
10:00am 14
mph
1016.6mb 60f
9:00am 20 21 mph 1016.1mb 55f
8:00am 21 22 mph 1015.7mb 54f
7:00am 26
mph
1014.6mb 55f
6:00am 25 26 mph 1014.6mb 54f
5:00am 26 28 mph 1014.3mb 55f
4:00am 30
mph
1013.5mb 59f
3:00am 29
mph
1014.2mb 59f
2:00am 30 31 mph 1014.1mb 59f
1:00am 30 31 mph 1014.6mb 58f
12:00am 29
mph
1015.2mb 58f
Wed 02/03 11:00pm 28
mph
1015.9mb 58f
10:00pm 22
mph
1016.7mb 61f
9:00pm 22
mph
1016.8mb 58f
8:00pm 8 9 mph 1017.7mb 59f
7:00pm 14 15 mph 1018.2mb 60f
6:00pm 33 34 mph 1014.5mb 55f
5:00pm 36 38 mph 1013.7mb 54f
4:00pm 33 36 mph 1013.5mb 55f
3:00pm 33 36 mph 1014.2mb 55f
2:00pm 36 37 mph 1014.5mb 56f
1:00pm 37 38 mph 1015.9mb 56f
12:00pm 29 30 mph 1017.9mb 55f
11:00am 31 32 mph 1018.7mb 54f
10:00am 28 29 mph 1020.1mb 54f
9:00am 32
mph
1019.9mb 55f
8:00am 31
mph
1020.5mb 55f
7:00am 28 29 mph 1020.8mb 55f
6:00am 28 30 mph 1020.3mb 55f
5:00am 25 26 mph 1021mb 53f
4:00am 23
mph
1021.8mb 52f
3:00am 21
mph
1022.8mb 51f
2:00am 16 17 mph 1023.5mb 51f
1:00am 21
mph
1023.5mb 50f